createdAt,value
2022-09-25T00:01:17.643Z,10.40
2022-09-25T00:03:45.121Z,10.15
2022-09-25T00:06:22.100Z,10.90
2022-09-25T00:08:50.983Z,11.68
2022-09-25T00:11:27.953Z,11.82
2022-09-25T00:13:56.570Z,10.98
2022-09-25T00:16:30.567Z,12.30
2022-09-25T00:19:18.688Z,11.55
2022-09-25T00:21:46.129Z,9.48
2022-09-25T00:24:13.776Z,9.60
2022-09-25T00:26:43.761Z,8.88
2022-09-25T00:29:20.490Z,10.95
2022-09-25T00:31:47.547Z,10.38
2022-09-25T00:34:14.734Z,10.10
2022-09-25T00:36:41.878Z,9.80
2022-09-25T00:39:09.020Z,10.23
2022-09-25T00:41:36.108Z,8.77
2022-09-25T00:45:03.834Z,9.32
2022-09-25T00:48:02.643Z,8.45
2022-09-25T00:50:41.117Z,8.40
2022-09-25T00:53:28.886Z,8.63
2022-09-25T00:56:01.531Z,9.27
2022-09-25T00:58:35.138Z,9.85
2022-09-25T01:01:02.214Z,10.90
2022-09-25T01:03:29.402Z,10.10
2022-09-25T01:06:00.402Z,11.98
2022-09-25T01:08:34.167Z,11.40
2022-09-25T01:11:02.423Z,12.07
2022-09-25T01:13:30.252Z,11.50
2022-09-25T01:16:19.392Z,10.30
2022-09-25T01:19:33.709Z,11.30
2022-09-25T01:22:32.331Z,9.82
2022-09-25T01:25:49.122Z,11.45
2022-09-25T01:29:04.521Z,12.63
2022-09-25T01:32:32.214Z,11.52
2022-09-25T01:35:31.995Z,12.15
2022-09-25T01:38:38.604Z,12.57
2022-09-25T01:41:31.080Z,13.45
2022-09-25T01:44:17.696Z,13.35
2022-09-25T01:46:56.201Z,11.60
2022-09-25T01:49:36.245Z,11.98
2022-09-25T01:52:18.481Z,15.27
2022-09-25T01:54:56.209Z,11.80
2022-09-25T01:57:38.525Z,12.77
2022-09-25T02:00:19.103Z,18.15
2022-09-25T02:03:14.272Z,13.07
2022-09-25T02:05:57.097Z,13.18
2022-09-25T02:08:49.060Z,13.25
2022-09-25T02:11:16.219Z,13.68
2022-09-25T02:14:07.019Z,14.23
2022-09-25T02:16:44.682Z,11.85
2022-09-25T02:19:36.746Z,12.70
2022-09-25T02:22:35.986Z,13.05
2022-09-25T02:25:42.818Z,14.13
2022-09-25T02:28:10.094Z,15.52
2022-09-25T02:30:37.417Z,18.20
2022-09-25T02:33:04.466Z,14.07
2022-09-25T02:35:32.944Z,16.58
2022-09-25T02:38:00.237Z,14.65
2022-09-25T02:40:53.018Z,14.30
2022-09-25T02:44:35.322Z,14.40
2022-09-25T02:47:56.360Z,16.33
2022-09-25T02:51:32.138Z,17.10
2022-09-25T02:54:35.133Z,15.80
2022-09-25T02:57:23.606Z,13.75
2022-09-25T03:00:07.173Z,15.83
2022-09-25T03:02:41.370Z,15.73
2022-09-25T03:05:15.901Z,15.52
2022-09-25T03:08:01.684Z,14.98
2022-09-25T03:10:33.252Z,13.35
2022-09-25T03:13:20.994Z,15.10
2022-09-25T03:15:59.005Z,15.15
2022-09-25T03:18:28.604Z,13.07
2022-09-25T03:20:55.623Z,15.48
2022-09-25T03:23:23.092Z,13.32
2022-09-25T03:25:50.656Z,13.35
2022-09-25T03:28:17.709Z,12.88
2022-09-25T03:30:45.756Z,18.27
2022-09-25T03:33:13.900Z,17.55
2022-09-25T03:35:41.070Z,15.68
2022-09-25T03:38:08.820Z,17.13
2022-09-25T03:40:35.981Z,16.23
2022-09-25T03:45:28.821Z,17.27
2022-09-25T03:47:55.743Z,13.80
2022-09-25T03:50:22.796Z,14.50
2022-09-25T03:52:49.735Z,13.27
2022-09-25T03:55:16.897Z,13.35
2022-09-25T03:57:43.860Z,13.33
2022-09-25T04:00:11.968Z,13.95
2022-09-25T04:02:39.165Z,15.35
2022-09-25T04:05:07.199Z,15.27
2022-09-25T04:10:00.982Z,13.18
2022-09-25T04:12:28.589Z,15.20
2022-09-25T04:14:55.557Z,14.98
2022-09-25T04:17:22.489Z,18.15
2022-09-25T04:19:49.417Z,16.13
2022-09-25T04:22:16.351Z,16.70
2022-09-25T04:24:49.279Z,14.20
2022-09-25T04:27:23.154Z,15.35
2022-09-25T04:29:50.682Z,13.70
2022-09-25T04:32:36.407Z,15.68
2022-09-25T04:35:03.958Z,16.77
2022-09-25T04:37:31.134Z,17.05
2022-09-25T04:39:58.999Z,16.83
2022-09-25T04:42:26.604Z,15.80
2022-09-25T04:44:58.255Z,16.45
2022-09-25T04:47:30.214Z,17.02
2022-09-25T04:49:57.589Z,15.52
2022-09-25T04:52:24.675Z,15.27
2022-09-25T04:54:51.703Z,17.13
2022-09-25T04:57:45.667Z,16.50
2022-09-25T05:00:11.065Z,18.38
2022-09-25T05:02:38.216Z,16.33
2022-09-25T05:05:06.561Z,18.48
2022-09-25T05:07:33.506Z,19.00
2022-09-25T05:10:00.456Z,15.68
2022-09-25T05:12:27.421Z,18.45
2022-09-25T05:14:54.365Z,16.02
2022-09-25T05:17:21.304Z,18.23
2022-09-25T05:19:48.244Z,18.08
2022-09-25T05:22:15.929Z,16.90
2022-09-25T05:24:42.855Z,21.13
2022-09-25T05:27:10.050Z,15.63
2022-09-25T05:29:37.396Z,16.67
2022-09-25T05:32:04.502Z,17.77
2022-09-25T05:34:31.430Z,17.77
2022-09-25T05:36:58.342Z,16.52
2022-09-25T05:39:25.279Z,15.55
2022-09-25T05:41:52.242Z,15.95
2022-09-25T05:44:19.201Z,13.68
2022-09-25T05:46:46.123Z,12.95
2022-09-25T05:49:13.091Z,17.52
2022-09-25T05:51:40.045Z,16.55
2022-09-25T05:54:07.064Z,18.58
2022-09-25T05:56:34.078Z,17.97
